createdAt,value
2022-08-28T00:01:49.556Z,16.16
2022-08-28T00:05:01.180Z,16.14
2022-08-28T00:07:47.653Z,16.13
2022-08-28T00:10:58.011Z,16.11
2022-08-28T00:13:34.274Z,16.10
2022-08-28T00:16:18.209Z,16.11
2022-08-28T00:19:03.551Z,16.09
2022-08-28T00:22:03.731Z,16.09
2022-08-28T00:25:07.615Z,16.08
2022-08-28T00:27:59.436Z,16.08
2022-08-28T00:31:00.230Z,16.08
2022-08-28T00:34:10.668Z,16.09
2022-08-28T00:36:58.705Z,16.09
2022-08-28T00:39:48.778Z,16.09
2022-08-28T00:42:33.297Z,16.10
2022-08-28T00:45:24.296Z,16.10
2022-08-28T00:48:01.375Z,16.10
2022-08-28T00:51:15.099Z,16.11
2022-08-28T00:54:15.363Z,16.12
2022-08-28T00:56:56.379Z,16.11
2022-08-28T00:59:45.662Z,16.12
2022-08-28T01:02:37.507Z,16.12
2022-08-28T01:05:49.401Z,16.13
2022-08-28T01:08:32.796Z,16.11
2022-08-28T01:11:23.106Z,16.09
2022-08-28T01:14:03.054Z,16.04
2022-08-28T01:16:38.843Z,15.98
2022-08-28T01:19:32.480Z,15.93
2022-08-28T01:22:21.847Z,15.90
2022-08-28T01:25:03.510Z,15.88
2022-08-28T01:27:43.849Z,15.86
2022-08-28T01:30:24.554Z,15.83
2022-08-28T01:33:16.832Z,15.81
2022-08-28T01:36:25.820Z,15.76
2022-08-28T01:39:23.269Z,15.71
2022-08-28T01:42:13.539Z,15.68
2022-08-28T01:45:10.669Z,15.63
2022-08-28T01:48:01.265Z,15.59
2022-08-28T01:51:19.510Z,15.53
2022-08-28T01:54:12.047Z,15.48
2022-08-28T01:57:06.247Z,15.44
2022-08-28T01:59:54.878Z,15.40
2022-08-28T02:02:48.856Z,15.37
2022-08-28T02:05:39.877Z,15.33
2022-08-28T02:08:43.941Z,15.28
2022-08-28T02:11:33.243Z,15.25
2022-08-28T02:14:12.803Z,15.20
2022-08-28T02:16:44.571Z,15.16
2022-08-28T02:19:42.415Z,15.14
2022-08-28T02:22:52.782Z,15.12
2022-08-28T02:26:05.150Z,15.10
2022-08-28T02:28:54.315Z,15.08
2022-08-28T02:31:53.799Z,15.07
2022-08-28T02:35:03.816Z,15.05
2022-08-28T02:37:55.859Z,15.03
2022-08-28T02:40:45.691Z,15.03
2022-08-28T02:43:31.729Z,15.00
2022-08-28T02:46:26.036Z,14.99
2022-08-28T02:49:23.866Z,14.98
2022-08-28T02:52:33.016Z,14.96
2022-08-28T02:55:25.523Z,14.95
2022-08-28T02:58:35.047Z,14.94
2022-08-28T03:01:26.728Z,14.94
2022-08-28T03:04:18.739Z,14.93
2022-08-28T03:07:13.090Z,14.93
2022-08-28T03:10:02.934Z,14.92
2022-08-28T03:12:45.998Z,14.91
2022-08-28T03:15:44.340Z,14.90
2022-08-28T03:18:43.842Z,14.91
2022-08-28T03:21:43.084Z,14.91
2022-08-28T03:24:37.880Z,14.90
2022-08-28T03:27:13.837Z,14.89
2022-08-28T03:30:07.901Z,14.88
2022-08-28T03:33:00.689Z,14.88
2022-08-28T03:35:55.498Z,14.89
2022-08-28T03:38:44.634Z,14.88
2022-08-28T03:41:54.584Z,14.88
2022-08-28T03:44:47.239Z,14.86
2022-08-28T03:47:55.166Z,14.85
2022-08-28T03:50:44.160Z,14.84
2022-08-28T03:53:36.814Z,14.83
2022-08-28T03:56:11.185Z,14.82
2022-08-28T03:59:02.784Z,14.82
2022-08-28T04:01:46.957Z,14.82
2022-08-28T04:04:56.423Z,14.81
2022-08-28T04:08:06.325Z,14.81
2022-08-28T04:10:54.516Z,14.79
2022-08-28T04:13:43.782Z,14.78
2022-08-28T04:16:32.905Z,14.79
2022-08-28T04:19:43.093Z,14.79
2022-08-28T04:22:43.370Z,14.80
2022-08-28T04:25:54.479Z,14.81
2022-08-28T04:28:57.314Z,14.82
2022-08-28T04:31:37.084Z,14.82
2022-08-28T04:34:39.226Z,14.82
2022-08-28T04:37:49.605Z,14.82
2022-08-28T04:40:58.895Z,14.83
2022-08-28T04:43:58.565Z,14.84
2022-08-28T04:47:09.115Z,14.86
2022-08-28T04:50:04.134Z,14.87
2022-08-28T04:52:51.506Z,14.89
2022-08-28T04:55:53.657Z,14.88
2022-08-28T04:58:47.163Z,14.88
2022-08-28T05:01:40.862Z,14.89
2022-08-28T05:04:22.828Z,14.88
2022-08-28T05:07:14.183Z,14.87
2022-08-28T05:09:53.615Z,14.88
2022-08-28T05:12:49.984Z,14.88
2022-08-28T05:15:50.956Z,14.88
2022-08-28T05:18:39.458Z,14.87
2022-08-28T05:21:49.001Z,14.87
2022-08-28T05:24:41.186Z,14.86
2022-08-28T05:27:28.352Z,14.83
2022-08-28T05:30:38.962Z,14.83
2022-08-28T05:33:29.442Z,14.83
2022-08-28T05:36:11.465Z,14.83
2022-08-28T05:38:57.821Z,14.84
2022-08-28T05:41:40.117Z,14.84
2022-08-28T05:44:31.500Z,14.85
2022-08-28T05:47:10.462Z,14.87
2022-08-28T05:49:52.939Z,14.88
2022-08-28T05:52:45.477Z,14.90
2022-08-28T05:55:28.813Z,14.93
2022-08-28T05:58:30.887Z,14.94
2022-08-28T06:01:29.713Z,14.97
2022-08-28T06:04:40.070Z,15.01
2022-08-28T06:07:27.760Z,15.05
2022-08-28T06:10:36.830Z,15.11
2022-08-28T06:13:40.150Z,15.15
2022-08-28T06:16:53.359Z,15.20
2022-08-28T06:19:31.582Z,15.24
2022-08-28T06:22:14.281Z,15.27
2022-08-28T06:25:21.608Z,15.34
2022-08-28T06:28:28.480Z,15.37
2022-08-28T06:31:24.204Z,15.41
2022-08-28T06:34:14.589Z,15.45
2022-08-28T06:37:23.766Z,15.52
2022-08-28T06:40:46.072Z,15.59
2022-08-28T06:43:29.279Z,15.64
2022-08-28T06:46:40.685Z,15.73
2022-08-28T06:49:49.914Z,15.80
2022-08-28T06:52:39.004Z,15.86
2022-08-28T06:55:15.971Z,15.92
2022-08-28T06:58:07.895Z,16.00
2022-08-28T07:00:46.155Z,16.08
2022-08-28T07:03:36.343Z,16.16
2022-08-28T07:06:21.662Z,16.24
2022-08-28T07:09:14.210Z,16.32
2022-08-28T07:12:06.117Z,16.40
2022-08-28T07:14:44.022Z,16.45
2022-08-28T07:17:18.744Z,16.53
2022-08-28T07:20:22.811Z,16.65
2022-08-28T07:23:12.735Z,16.78
2022-08-28T07:25:44.924Z,16.88
2022-08-28T07:28:37.191Z,17.00
2022-08-28T07:31:36.053Z,17.14
2022-08-28T07:34:45.454Z,17.31
2022-08-28T07:37:37.424Z,17.46
2022-08-28T07:40:12.124Z,17.63
2022-08-28T07:43:02.287Z,17.78
2022-08-28T07:45:33.082Z,17.97
2022-08-28T07:48:24.754Z,18.11
2022-08-28T07:50:53.964Z,18.23
2022-08-28T07:53:25.748Z,18.38
2022-08-28T07:55:54.977Z,18.54
2022-08-28T07:58:25.576Z,18.61
2022-08-28T08:00:55.328Z,18.60
2022-08-28T08:03:46.684Z,18.65
2022-08-28T08:06:18.358Z,18.68
2022-08-28T08:08:48.304Z,18.67
2022-08-28T08:11:24.694Z,18.68
2022-08-28T08:13:54.514Z,18.73
2022-08-28T08:16:25.469Z,18.82
2022-08-28T08:18:54.760Z,18.94
2022-08-28T08:21:28.283Z,19.13
2022-08-28T08:23:59.335Z,19.31
2022-08-28T08:26:29.077Z,19.53
2022-08-28T08:29:00.852Z,19.71
2022-08-28T08:31:32.001Z,19.86
2022-08-28T08:34:03.964Z,19.97
2022-08-28T08:36:34.962Z,20.05
2022-08-28T08:39:06.538Z,20.05
2022-08-28T08:41:47.614Z,20.09
2022-08-28T08:44:33.274Z,20.15
2022-08-28T08:47:21.664Z,20.20
2022-08-28T08:49:54.996Z,20.26
2022-08-28T08:52:34.997Z,20.32
2022-08-28T08:55:09.462Z,20.41
2022-08-28T08:57:46.063Z,20.48
2022-08-28T09:00:19.750Z,20.57
2022-08-28T09:02:56.660Z,20.64
2022-08-28T09:05:37.968Z,20.73
2022-08-28T09:08:12.710Z,20.82
2022-08-28T09:10:48.113Z,20.96
2022-08-28T09:13:26.118Z,21.07
2022-08-28T09:15:55.112Z,21.31
2022-08-28T09:18:27.512Z,21.54
2022-08-28T09:20:58.938Z,21.85
2022-08-28T09:23:30.047Z,22.30
2022-08-28T09:26:01.842Z,23.04
2022-08-28T09:28:35.259Z,24.22
2022-08-28T09:31:07.128Z,25.68
2022-08-28T09:33:41.801Z,26.96
2022-08-28T09:36:29.632Z,27.51
2022-08-28T09:39:11.424Z,28.16
2022-08-28T09:42:08.879Z,28.43
2022-08-28T09:44:51.950Z,27.86
2022-08-28T09:47:48.232Z,27.21
2022-08-28T09:50:33.029Z,26.48
2022-08-28T09:53:17.335Z,26.07
2022-08-28T09:55:55.483Z,25.86
2022-08-28T09:58:32.812Z,25.74
2022-08-28T10:01:10.401Z,25.58
2022-08-28T10:03:51.603Z,25.49
2022-08-28T10:06:26.594Z,25.36
2022-08-28T10:09:06.235Z,25.24
2022-08-28T10:11:44.666Z,25.05
2022-08-28T10:14:27.002Z,24.82
2022-08-28T10:17:06.122Z,24.59
2022-08-28T10:19:46.089Z,24.43
2022-08-28T10:22:28.297Z,24.32
2022-08-28T10:25:13.491Z,24.17
2022-08-28T10:27:54.274Z,24.11
2022-08-28T10:30:24.897Z,23.99
2022-08-28T10:33:16.688Z,23.90
2022-08-28T10:35:56.823Z,23.79
2022-08-28T10:38:29.951Z,23.67
2022-08-28T10:41:04.492Z,23.44
2022-08-28T10:43:36.680Z,23.24
2022-08-28T10:46:12.175Z,23.12
2022-08-28T10:48:47.351Z,23.08
2022-08-28T10:51:20.481Z,23.02
2022-08-28T10:54:18.876Z,22.83
2022-08-28T10:56:56.842Z,22.72
2022-08-28T10:59:29.541Z,22.59
2022-08-28T11:01:59.594Z,22.47
2022-08-28T11:04:31.668Z,22.40
2022-08-28T11:07:05.627Z,22.32
2022-08-28T11:09:37.320Z,22.27
2022-08-28T11:12:28.286Z,22.24
2022-08-28T11:14:57.214Z,22.30
2022-08-28T11:17:41.142Z,22.31
2022-08-28T11:20:17.829Z,22.17
2022-08-28T11:22:50.066Z,22.14
2022-08-28T11:25:26.604Z,22.10
2022-08-28T11:28:40.886Z,22.10
2022-08-28T11:31:35.502Z,22.01
2022-08-28T11:34:05.809Z,21.73
2022-08-28T11:37:02.449Z,21.54
2022-08-28T11:39:31.587Z,21.53
2022-08-28T11:42:38.314Z,21.51
2022-08-28T11:45:20.209Z,21.49
2022-08-28T11:47:56.300Z,21.48
2022-08-28T11:50:29.149Z,21.54
2022-08-28T11:53:33.636Z,21.66
2022-08-28T11:56:31.862Z,21.81
2022-08-28T11:59:26.063Z,21.96
2022-08-28T12:02:51.905Z,22.16
2022-08-28T12:05:53.069Z,22.28
2022-08-28T12:09:09.922Z,22.39
2022-08-28T12:12:00.355Z,22.34
2022-08-28T12:15:04.133Z,22.29
2022-08-28T12:17:49.095Z,22.23
2022-08-28T12:20:38.836Z,22.17
2022-08-28T12:23:37.643Z,22.10
2022-08-28T12:26:09.989Z,22.05
2022-08-28T12:28:49.092Z,22.06
2022-08-28T12:32:12.408Z,21.97
2022-08-28T12:34:49.963Z,21.80
2022-08-28T12:37:50.911Z,21.67
2022-08-28T12:40:26.607Z,21.49
2022-08-28T12:42:59.670Z,21.42
2022-08-28T12:45:32.363Z,21.39
2022-08-28T12:48:04.479Z,21.36
2022-08-28T12:50:36.977Z,21.32
2022-08-28T12:53:17.605Z,21.19
2022-08-28T12:55:47.215Z,21.14
2022-08-28T12:58:29.513Z,21.08
2022-08-28T13:01:03.426Z,21.03
2022-08-28T13:03:33.247Z,21.00
2022-08-28T13:06:06.268Z,20.92
2022-08-28T13:08:36.772Z,20.83
2022-08-28T13:11:05.935Z,20.73
2022-08-28T13:13:37.890Z,20.65
2022-08-28T13:16:08.853Z,20.55
2022-08-28T13:18:55.441Z,20.44
2022-08-28T13:21:34.992Z,20.32
2022-08-28T13:24:26.869Z,20.19
2022-08-28T13:27:08.865Z,20.06
2022-08-28T13:29:39.258Z,19.97
2022-08-28T13:32:15.472Z,19.90
2022-08-28T13:35:04.308Z,19.90
2022-08-28T13:37:45.526Z,19.91
2022-08-28T13:43:16.210Z,19.82
2022-08-28T13:45:47.696Z,19.80
2022-08-28T13:48:18.737Z,19.74
2022-08-28T13:50:50.148Z,19.67
2022-08-28T13:53:21.053Z,19.62
2022-08-28T13:55:51.349Z,19.60
2022-08-28T13:58:20.398Z,19.60
2022-08-28T14:00:52.611Z,19.62
2022-08-28T14:03:37.869Z,19.66
2022-08-28T14:06:10.917Z,19.77
2022-08-28T14:08:40.857Z,19.93
2022-08-28T14:11:12.986Z,20.07
2022-08-28T14:13:46.714Z,20.24
2022-08-28T14:16:25.183Z,20.44
2022-08-28T14:18:53.518Z,20.57
2022-08-28T14:21:23.847Z,20.63
2022-08-28T14:23:52.860Z,20.68
2022-08-28T14:26:21.679Z,20.73
2022-08-28T14:28:50.407Z,20.86
2022-08-28T14:31:26.460Z,20.94
2022-08-28T14:33:56.796Z,21.02
2022-08-28T14:36:25.716Z,21.07
2022-08-28T14:38:57.503Z,21.17
2022-08-28T14:41:26.677Z,21.29
2022-08-28T14:43:56.513Z,21.36
2022-08-28T14:46:27.990Z,21.44
2022-08-28T14:48:57.957Z,21.50
2022-08-28T14:51:27.478Z,21.57
2022-08-28T14:53:57.867Z,21.60
2022-08-28T14:56:28.062Z,21.61
2022-08-28T14:59:02.429Z,21.61
2022-08-28T15:01:40.706Z,21.61
2022-08-28T15:04:23.047Z,21.65
2022-08-28T15:06:56.473Z,21.70
2022-08-28T15:09:28.041Z,21.72
2022-08-28T15:11:57.048Z,21.72
2022-08-28T15:14:25.859Z,21.71
2022-08-28T15:16:55.809Z,21.64
2022-08-28T15:19:29.466Z,21.61
2022-08-28T15:21:58.643Z,21.58
2022-08-28T15:24:30.560Z,21.54
2022-08-28T15:26:59.501Z,21.46
2022-08-28T15:29:29.912Z,21.33
2022-08-28T15:32:00.155Z,21.26
2022-08-28T15:34:33.472Z,21.22
2022-08-28T15:37:07.804Z,21.16
2022-08-28T15:39:57.537Z,21.13
2022-08-28T15:42:29.864Z,21.09
2022-08-28T15:44:58.928Z,21.04
2022-08-28T15:47:27.664Z,20.97
2022-08-28T15:49:57.267Z,20.93
2022-08-28T15:52:25.944Z,20.91
2022-08-28T15:54:55.181Z,20.91
2022-08-28T15:57:24.205Z,20.91
2022-08-28T15:59:53.963Z,20.90
2022-08-28T16:02:25.131Z,20.92
2022-08-28T16:04:54.707Z,20.87
2022-08-28T16:07:24.734Z,20.78
2022-08-28T16:10:16.529Z,20.71
2022-08-28T16:12:47.844Z,20.66
2022-08-28T16:15:21.114Z,20.57
2022-08-28T16:17:50.355Z,20.51
2022-08-28T16:20:19.276Z,20.43
2022-08-28T16:22:48.047Z,20.40
2022-08-28T16:25:17.469Z,20.37
2022-08-28T16:27:46.166Z,20.33
2022-08-28T16:30:16.151Z,20.32
2022-08-28T16:32:46.839Z,20.30
2022-08-28T16:35:16.438Z,20.23
2022-08-28T16:37:45.644Z,20.21
2022-08-28T16:40:17.904Z,20.18
2022-08-28T16:42:51.284Z,20.15
2022-08-28T16:45:21.355Z,20.08
2022-08-28T16:47:50.302Z,20.01
2022-08-28T16:50:19.435Z,19.95
2022-08-28T16:52:48.202Z,19.89
2022-08-28T16:55:17.040Z,19.83
2022-08-28T16:58:06.859Z,19.81
2022-08-28T17:00:42.061Z,19.80
2022-08-28T17:03:26.181Z,19.77
2022-08-28T17:05:57.104Z,19.73
2022-08-28T17:08:26.303Z,19.66
2022-08-28T17:10:58.624Z,19.58
2022-08-28T17:13:27.398Z,19.53
2022-08-28T17:15:56.219Z,19.47
2022-08-28T17:18:25.131Z,19.41
2022-08-28T17:21:11.827Z,19.37
2022-08-28T17:23:49.231Z,19.36
2022-08-28T17:26:18.684Z,19.36
2022-08-28T17:28:47.824Z,19.35
2022-08-28T17:31:17.444Z,19.31
2022-08-28T17:33:46.893Z,19.25
2022-08-28T17:36:32.492Z,19.18
2022-08-28T17:39:04.721Z,19.14
2022-08-28T17:41:34.103Z,19.10
2022-08-28T17:44:04.601Z,19.01
2022-08-28T17:46:45.915Z,18.93
2022-08-28T17:49:26.415Z,18.88
2022-08-28T17:52:01.648Z,18.83
2022-08-28T17:54:30.779Z,18.77
2022-08-28T17:57:19.737Z,18.69
2022-08-28T18:00:19.010Z,18.62
2022-08-28T18:02:51.195Z,18.57
2022-08-28T18:05:29.135Z,18.54
2022-08-28T18:07:58.184Z,18.48
2022-08-28T18:10:27.265Z,18.42
2022-08-28T18:12:59.198Z,18.36
2022-08-28T18:15:28.480Z,18.31
2022-08-28T18:17:57.513Z,18.26
2022-08-28T18:20:29.229Z,18.20
2022-08-28T18:23:01.062Z,18.15
2022-08-28T18:25:42.188Z,18.10
2022-08-28T18:28:19.609Z,18.01
2022-08-28T18:30:51.943Z,17.93
2022-08-28T18:33:23.212Z,17.87
2022-08-28T18:35:54.690Z,17.83
2022-08-28T18:38:28.184Z,17.80
2022-08-28T18:40:58.555Z,17.77
2022-08-28T18:43:28.149Z,17.72
2022-08-28T18:46:01.825Z,17.67
2022-08-28T18:48:30.769Z,17.61
2022-08-28T18:51:05.448Z,17.57
2022-08-28T18:53:34.362Z,17.52
2022-08-28T18:56:04.918Z,17.50
2022-08-28T18:58:35.956Z,17.46
2022-08-28T19:01:17.786Z,17.43
2022-08-28T19:03:46.761Z,17.38
2022-08-28T19:06:16.675Z,17.36
2022-08-28T19:08:51.570Z,17.31
2022-08-28T19:11:23.922Z,17.27
2022-08-28T19:14:03.740Z,17.24
2022-08-28T19:17:02.854Z,17.22
2022-08-28T19:19:41.858Z,17.18
2022-08-28T19:22:10.662Z,17.14
2022-08-28T19:24:42.840Z,17.10
2022-08-28T19:27:15.388Z,17.07
2022-08-28T19:29:44.611Z,17.04
2022-08-28T19:32:16.540Z,17.00
2022-08-28T19:34:55.723Z,16.97
2022-08-28T19:37:42.094Z,16.95
2022-08-28T19:40:28.071Z,16.92
2022-08-28T19:43:43.210Z,16.88
2022-08-28T19:46:19.415Z,16.86
2022-08-28T19:48:56.454Z,16.85
2022-08-28T19:51:36.942Z,16.83
2022-08-28T19:54:10.730Z,16.81
2022-08-28T19:56:59.865Z,16.78
2022-08-28T19:59:37.617Z,16.75
2022-08-28T20:02:31.908Z,16.73
2022-08-28T20:05:04.536Z,16.70
2022-08-28T20:07:36.721Z,16.67
2022-08-28T20:10:21.548Z,16.64
2022-08-28T20:13:11.076Z,16.62
2022-08-28T20:16:11.814Z,16.60
2022-08-28T20:18:58.983Z,16.58
2022-08-28T20:21:49.946Z,16.57
2022-08-28T20:24:40.975Z,16.56
2022-08-28T20:27:30.269Z,16.52
2022-08-28T20:30:37.904Z,16.52
2022-08-28T20:33:16.996Z,16.52
2022-08-28T20:36:11.847Z,16.51
2022-08-28T20:39:00.277Z,16.49
2022-08-28T20:41:32.235Z,16.48
2022-08-28T20:44:41.674Z,16.45
2022-08-28T20:47:28.173Z,16.42
2022-08-28T20:50:03.128Z,16.42
2022-08-28T20:52:37.535Z,16.41
2022-08-28T20:55:24.150Z,16.40
2022-08-28T20:58:09.514Z,16.40
2022-08-28T21:01:02.209Z,16.39
2022-08-28T21:03:59.343Z,16.38
2022-08-28T21:06:48.750Z,16.36
2022-08-28T21:09:39.576Z,16.34
2022-08-28T21:12:20.058Z,16.33
2022-08-28T21:15:03.995Z,16.30
2022-08-28T21:17:52.190Z,16.30
2022-08-28T21:21:09.070Z,16.28
2022-08-28T21:23:54.016Z,16.27
2022-08-28T21:26:50.274Z,16.26
2022-08-28T21:29:39.440Z,16.25
2022-08-28T21:32:32.237Z,16.25
2022-08-28T21:35:15.976Z,16.25
2022-08-28T21:37:48.944Z,16.25
2022-08-28T21:40:31.251Z,16.24
2022-08-28T21:43:00.784Z,16.25
2022-08-28T21:45:31.703Z,16.25
2022-08-28T21:48:03.931Z,16.25
2022-08-28T21:50:34.100Z,16.25
2022-08-28T21:53:26.524Z,16.24
2022-08-28T21:56:08.156Z,16.24
2022-08-28T21:59:17.471Z,16.22
2022-08-28T22:02:02.296Z,16.19
2022-08-28T22:05:12.430Z,16.18
2022-08-28T22:08:02.229Z,16.17
2022-08-28T22:11:13.126Z,16.16
2022-08-28T22:14:07.897Z,16.15
2022-08-28T22:17:00.792Z,16.14
2022-08-28T22:19:42.990Z,16.13
2022-08-28T22:22:44.238Z,16.14
2022-08-28T22:25:26.599Z,16.14
2022-08-28T22:28:24.123Z,16.13
2022-08-28T22:31:04.723Z,16.12
2022-08-28T22:34:15.906Z,16.12
2022-08-28T22:36:44.922Z,16.11
2022-08-28T22:39:13.887Z,16.11
2022-08-28T22:42:30.254Z,16.11
2022-08-28T22:45:25.583Z,16.08
2022-08-28T22:48:54.518Z,16.08
2022-08-28T22:51:32.370Z,16.08
2022-08-28T22:54:27.477Z,16.09
2022-08-28T22:57:06.540Z,16.09
2022-08-28T22:59:41.779Z,16.09
2022-08-28T23:02:27.541Z,16.10
2022-08-28T23:04:59.735Z,16.11
2022-08-28T23:07:58.963Z,16.12
2022-08-28T23:10:58.402Z,16.13
2022-08-28T23:13:33.231Z,16.13
2022-08-28T23:16:45.583Z,16.14
2022-08-28T23:19:31.213Z,16.14
2022-08-28T23:22:31.961Z,16.13
2022-08-28T23:30:15.788Z,16.12
2022-08-28T23:32:45.009Z,16.12
2022-08-28T23:35:54.263Z,16.12
2022-08-28T23:43:51.478Z,16.11
2022-08-28T23:46:53.329Z,16.09
2022-08-28T23:49:43.065Z,16.07
2022-08-28T23:53:16.753Z,16.04
2022-08-28T23:56:15.171Z,16.01
2022-08-28T23:59:21.346Z,16.00
